Terminal Aerodrome Forecast
Issued by NWS Twin Cities, MN

Home | Current Version | Previous Version | Graphics & Text | Print | Product List | Glossary On
Versions: 1 2 3 4 5 6 7 8 9 10 11 12 13 14 15 16 17 18 19 20 21 22 23 24 25 26 27 28 29 30 31 32 33
000
FTUS43 KMPX 151139
TAFMSP
TAF
KMSP 151139Z 1512/1618 30012KT P6SM BKN080
      TEMPO 1512/1513 OVC010
     FM151500 30015G21KT P6SM OVC018
     FM151800 30018G26KT P6SM OVC025
     FM160600 30010KT P6SM SCT040
     FM161200 VRB05KT P6SM FEW200=

USA.gov is the U.S. government's official web portal to all federal, state and local government web resources and services.